Ciudad de Panamá, Panamá

11:16 PM EST en Noviembre 26, 2014 (GMT -0500)
Marcos A Gelabert International | Change Station
CLOSE
Current Station
Aeropuerto
Location: Panama,
Altura: 43 ft
Estaciones meteorológicas cercanas

Alt 43 ft 8.98 °N, 79.52 °W | Updated 1 hour ago

Scattered Clouds
Nubes dispersas
79 ° F
Sensación térmica 79 ° F
N
0
Viento Variable Viento desde Norte

Hoy
Alta -- | Baja -- ° F
--% Posibilidad de precipitaciones
Ayer
Alta -- | Baja -- ° F
Precip. -- pul
6:15 AM 5:55 PM
Creciente, 25% visible
Presión 29.92 pul
Visibilidad 6.2 Millas
Nubes Baja 1800 ft
Nubes dispersas 9000 ft
Punto de rocío 73 ° F
Humedad 83%
Precipitaciones 0.00 pul
Espesor de la nieve No disponible.
UV 0 de una escala de 12
Polen No disponible.
Calidad del aire No disponible.
Flu Activity No disponible.
METAR MPMG 270300Z 00000KT 9999 FEW018 SCT090 26/23 Q1013 NOSIG

More Conditions Fewer Conditions

Presión 29.92 pul
Visibilidad 6.2 Millas
Nubes Baja 1800 ft
Nubes dispersas 9000 ft
Punto de rocío 73 ° F
Humedad 83%
Precipitaciones 0.00 pul
Espesor de la nieve No disponible.
UV 0 de una escala de 12
Polen No disponible.
Calidad del aire No disponible.
Flu Activity No disponible.
METAR MPMG 270300Z 00000KT 9999 FEW018 SCT090 26/23 Q1013 NOSIG

More Conditions Fewer Conditions

10-Day Weather Forecast

Almanac

Astronomía

Nov. 26, 2014 Salida Puesta
Hora real
Crepúsculo civil
Crepúsculo náutico
Crepúsculo astronómico
Luna
Horas de luz
Horas de luz
Tomorrow will be .
, % of the Moon is Illuminated

Extremos de hoy

Máximos del país Bajas del país

Community

WunderPhotos

Upload Photos

1,773,959 ¡fotos cargadas!

WunderBlogs® & News

Nearby

Calidad del aire

  Calidad del aire Índice AQ Contaminante
Not available.

Grosos de nieve

Estación Profundido Altura

Actividad de terremotos

Ciudad Distance Mag. Tiempo y dato
Magnitud mínima muestra es 2,5.

Temperaturas de aguas costeras

Lugar Temperatura

Estaciones meteorológicas cercanas